Glassboro, New Jersey
Current Conditions -  °F | °C
As of 11:54 AM on Friday 19 Dec 2014 (Local Time) from KPHL Reporting Station
Overcast Overcast  
Wind Chill: 30°   Ceiling: 3500
Heat Index: 39°   Visibility: 10mi
Dew Point: 23°   Wind: 16mph
Humidity: 53%   Direction: 330°NNW
Pressure: 30.09"   Gusts: NA
Location:  39.71°N, 75.11°W
Report Text: KPHL 191654Z 33014KT 10SM OVC035 04/M05 A3009 RMK AO2 SLP188 T00391050
Loading
Personal Weather Stations






























Interactive Weather Map New forecast layout! Learn more

10-Day Weather Forecast

Advertisements
Track Severe Weather on mobile